Time;durP1;ratioP1;P1;durP2;ratioP2;P2;SDS_P1;SDS_P2;PMS_P1;PMS_P2;Temp;Humidity;BMP_temperature;BMP_pressure;BME280_temperature;BME280_humidity;BME280_pressure;Samples;Min_cycle;Max_cycle;Signal;HPM_P1;HPM_P2
2023/07/21 00:00:59;;;;;;;2.53;2.20;;;18.60;83.80;;;21.41;55.81;101173.88;4994297;28;20219;-58
2023/07/21 00:03:26;;;;;;;3.33;2.50;;;18.60;83.70;;;21.42;55.19;101178.16;4994145;28;20203;-60
2023/07/21 00:05:54;;;;;;;2.93;2.20;;;18.60;83.80;;;21.43;55.76;101178.97;4993165;28;20552;-61
2023/07/21 00:08:21;;;;;;;2.50;2.30;;;18.60;84.00;;;21.43;55.08;101174.44;4992906;28;20702;-60
2023/07/21 00:10:49;;;;;;;4.50;2.43;;;18.60;83.70;;;21.42;55.10;101177.34;4994060;28;20220;-59
2023/07/21 00:13:16;;;;;;;2.97;2.77;;;18.70;83.70;;;21.39;55.12;101178.66;4994467;28;20258;-61
2023/07/21 00:15:46;;;;;;;4.07;2.47;;;18.60;83.40;;;21.37;55.34;101170.00;4994221;28;20664;-61
2023/07/21 00:18:13;;;;;;;3.40;2.30;;;18.70;83.30;;;21.34;55.75;101169.69;4994270;28;20224;-60
2023/07/21 00:20:40;;;;;;;3.67;2.90;;;18.60;83.90;;;21.33;55.38;101168.84;4993926;28;20605;-60
2023/07/21 00:23:08;;;;;;;3.40;2.60;;;18.60;83.70;;;21.32;55.88;101169.91;4992913;28;20275;-61
2023/07/21 00:25:34;;;;;;;4.37;2.40;;;18.60;84.10;;;21.31;55.32;101170.97;4994322;28;20255;-61
2023/07/21 00:28:03;;;;;;;4.33;2.67;;;18.50;84.90;;;21.33;55.13;101158.16;4993935;28;20278;-60
2023/07/21 00:30:31;;;;;;;3.57;2.53;;;18.50;84.00;;;21.31;55.13;101157.56;4993950;28;20219;-60
2023/07/21 00:32:59;;;;;;;5.87;2.50;;;18.50;83.90;;;21.30;55.71;101153.25;4993886;28;20227;-61
2023/07/21 00:35:26;;;;;;;2.80;2.20;;;18.50;84.00;;;21.29;55.19;101151.63;4996919;28;20184;-60
2023/07/21 00:37:53;;;;;;;2.70;2.40;;;18.50;84.10;;;21.28;55.65;101155.34;4998172;28;20258;-60
2023/07/21 00:40:20;;;;;;;3.50;2.73;;;18.50;84.30;;;21.26;55.93;101162.81;4997523;28;20212;-59
2023/07/21 00:42:48;;;;;;;7.90;2.80;;;18.40;84.30;;;21.24;55.55;101159.56;4997562;28;20639;-60
2023/07/21 00:45:16;;;;;;;2.83;2.47;;;18.40;84.30;;;21.25;55.93;101166.53;4998174;28;20188;-61
2023/07/21 00:47:45;;;;;;;4.93;2.47;;;18.40;84.30;;;21.23;55.22;101154.41;4998012;28;20198;-57
2023/07/21 00:50:14;;;;;;;3.23;2.90;;;18.40;84.30;;;21.19;55.85;101158.63;4996946;28;20228;-60
2023/07/21 00:52:42;;;;;;;2.83;2.63;;;18.40;84.10;;;21.16;55.94;101151.88;5004138;28;20202;-59
2023/07/21 00:55:10;;;;;;;3.23;2.93;;;18.40;84.50;;;21.16;55.96;101157.22;5017312;28;20219;-59
2023/07/21 00:57:38;;;;;;;3.67;3.30;;;18.40;85.20;;;21.20;56.44;101141.50;5010904;28;20278;-56
2023/07/21 01:00:07;;;;;;;4.63;3.03;;;18.40;85.20;;;21.22;55.88;101153.63;4997292;28;20298;-59
2023/07/21 01:02:36;;;;;;;5.07;3.73;;;18.40;85.00;;;21.18;56.39;101151.66;4997528;28;20250;-60
2023/07/21 01:05:04;;;;;;;4.20;3.23;;;18.40;84.90;;;21.13;56.40;101143.50;4980125;28;20197;-60
2023/07/21 01:07:33;;;;;;;4.60;3.90;;;18.40;85.00;;;21.07;56.08;101142.56;4977736;28;20276;-60
2023/07/21 01:10:01;;;;;;;3.97;3.40;;;18.40;85.20;;;21.08;56.35;101138.03;4977804;28;20220;-60
2023/07/21 01:12:30;;;;;;;4.10;3.70;;;18.40;85.30;;;21.07;56.62;101137.22;4978169;28;20189;-60
2023/07/21 01:14:58;;;;;;;3.30;3.00;;;18.40;85.30;;;21.07;56.13;101137.22;4978103;28;20297;-60
2023/07/21 01:17:29;;;;;;;4.80;4.40;;;18.30;85.30;;;21.04;56.59;101132.28;4978150;28;20200;-63
2023/07/21 01:20:00;;;;;;;5.13;4.73;;;18.30;85.40;;;21.04;56.63;101134.97;4977598;28;20570;-60
2023/07/21 01:22:36;;;;;;;5.30;3.73;;;18.30;85.70;;;21.03;57.29;101135.19;4976868;28;20192;-60
2023/07/21 01:25:12;;;;;;;4.63;4.20;;;18.30;86.20;;;21.06;57.23;101130.22;4980501;28;20191;-61
2023/07/21 01:27:42;;;;;;;5.47;4.97;;;18.40;86.50;;;21.11;57.10;101133.00;4997138;28;20243;-59
2023/07/21 01:30:13;;;;;;;5.47;4.73;;;18.40;86.40;;;21.12;56.61;101121.25;4996930;28;20299;-60
2023/07/21 01:32:42;;;;;;;5.23;4.73;;;18.40;86.10;;;21.14;56.79;101124.50;4997384;28;20223;-64
2023/07/21 01:35:12;;;;;;;6.87;4.73;;;18.40;86.10;;;21.14;57.10;101121.00;4997043;28;20306;-60
2023/07/21 01:37:43;;;;;;;5.63;5.13;;;18.40;86.10;;;21.14;56.98;101124.50;4997113;28;20255;-61
2023/07/21 01:40:15;;;;;;;6.23;5.63;;;18.40;85.90;;;21.13;56.79;101120.22;4996384;28;20208;-61
2023/07/21 01:42:46;;;;;;;6.27;5.07;;;18.40;86.10;;;21.12;56.49;101118.59;4995985;28;20227;-61
2023/07/21 01:45:15;;;;;;;6.97;4.70;;;18.30;86.00;;;21.11;56.72;101111.59;4996469;28;20188;-60
2023/07/21 01:47:45;;;;;;;9.13;4.60;;;18.30;86.10;;;21.11;56.74;101108.13;4996298;28;20188;-60
2023/07/21 01:50:17;;;;;;;5.90;5.30;;;18.30;86.20;;;21.09;56.92;101105.66;5010938;28;20217;-59
2023/07/21 01:52:45;;;;;;;5.47;4.97;;;18.30;86.20;;;21.10;57.05;101099.25;5003580;28;20234;-58
2023/07/21 01:55:22;;;;;;;6.40;5.67;;;18.30;86.20;;;21.08;57.20;101096.00;5016015;28;20310;-61
2023/07/21 01:57:55;;;;;;;4.90;4.50;;;18.30;86.30;;;21.10;57.08;101091.22;5008339;28;20542;-62
2023/07/21 02:00:25;;;;;;;5.50;5.00;;;18.30;86.70;;;21.13;57.24;101092.63;4996514;28;20584;-61
2023/07/21 02:02:54;;;;;;;5.57;4.90;;;18.30;86.70;;;21.15;57.15;101085.16;4996517;28;20202;-60
2023/07/21 02:05:23;;;;;;;5.50;4.23;;;18.30;86.30;;;21.14;57.11;101089.72;4977144;28;20189;-61
2023/07/21 02:07:50;;;;;;;4.93;4.37;;;18.30;86.20;;;21.16;57.23;101092.97;4976935;28;20196;-60
2023/07/21 02:10:19;;;;;;;6.00;4.73;;;18.30;86.70;;;21.21;56.99;101095.75;4975735;28;20267;-60
2023/07/21 02:12:46;;;;;;;4.77;4.37;;;18.40;86.80;;;21.27;56.78;101094.81;4976956;28;20207;-61
2023/07/21 02:15:14;;;;;;;7.53;5.33;;;18.40;86.50;;;21.29;56.44;101095.41;4977059;28;20200;-61
2023/07/21 02:17:41;;;;;;;5.57;5.07;;;18.50;85.90;;;21.30;56.32;101094.34;4976750;28;20615;-61
2023/07/21 02:20:09;;;;;;;8.37;5.20;;;18.50;85.30;;;21.26;56.26;101095.03;4975659;28;20282;-61
2023/07/21 02:22:38;;;;;;;5.13;4.67;;;18.50;84.90;;;21.24;55.96;101094.47;4976609;28;20196;-62
2023/07/21 02:25:09;;;;;;;5.63;4.87;;;18.50;84.80;;;21.22;56.74;101089.34;4979979;28;20267;-61
2023/07/21 02:27:37;;;;;;;5.63;4.80;;;18.50;85.60;;;21.26;56.29;101087.81;4996483;28;20267;-60
2023/07/21 02:30:06;;;;;;;6.00;4.47;;;18.50;86.50;;;21.31;56.54;101066.50;4995527;28;20242;-61
2023/07/21 02:32:33;;;;;;;4.50;4.10;;;18.50;85.50;;;21.34;56.57;101074.09;4995956;28;20222;-61
2023/07/21 02:35:00;;;;;;;4.80;4.40;;;18.50;85.40;;;21.36;55.56;101071.97;4995754;28;20239;-61
2023/07/21 02:37:28;;;;;;;6.07;5.00;;;18.50;85.00;;;21.36;55.98;101076.50;4996111;28;20196;-62
2023/07/21 02:39:55;;;;;;;6.53;4.50;;;18.60;85.20;;;21.38;56.17;101069.88;4995125;28;20754;-59
2023/07/21 02:42:22;;;;;;;5.73;5.23;;;18.60;85.20;;;21.38;55.82;101069.03;4995970;28;20239;-59
2023/07/21 02:44:51;;;;;;;5.40;4.90;;;18.60;84.60;;;21.34;55.34;101068.72;4995481;28;20740;-60
2023/07/21 02:47:19;;;;;;;7.83;5.80;;;18.60;84.50;;;21.27;55.42;101075.25;4995988;28;20202;-59
2023/07/21 02:49:46;;;;;;;6.97;6.33;;;18.60;84.30;;;21.17;55.76;101073.19;4994759;28;20212;-61
2023/07/21 02:52:12;;;;;;;9.43;6.07;;;18.50;84.00;;;;;;4998486;28;20203;-59
2023/07/21 02:54:39;;;;;;;6.00;5.30;;;18.50;84.30;;;21.01;56.05;101063.16;5015371;28;20242;-61
2023/07/21 02:57:07;;;;;;;6.27;5.67;;;18.40;84.30;;;21.01;56.07;101063.16;5012987;28;20229;-62
2023/07/21 02:59:35;;;;;;;8.33;6.57;;;18.40;84.90;;;20.99;56.33;101062.56;4995501;28;20218;-60
2023/07/21 03:02:05;;;;;;;7.17;6.37;;;18.30;84.60;;;20.95;55.87;101053.38;4995415;28;20250;-62
2023/07/21 03:04:34;;;;;;;5.97;5.17;;;18.30;84.60;;;20.90;55.89;101051.41;4995969;28;20222;-61
2023/07/21 03:07:02;;;;;;;5.73;5.23;;;18.20;84.50;;;20.86;56.53;101046.78;4995803;28;20527;-61
2023/07/21 03:09:29;;;;;;;6.60;6.00;;;18.20;84.60;;;20.84;56.08;101046.19;4995119;28;20754;-59
2023/07/21 03:11:57;;;;;;;6.13;5.57;;;18.20;84.90;;;20.78;56.03;101053.28;4995230;28;20645;-62
2023/07/21 03:14:24;;;;;;;5.20;4.70;;;18.10;84.80;;;20.77;56.53;101043.66;4995044;28;20612;-60
2023/07/21 03:16:51;;;;;;;5.67;5.17;;;18.10;84.90;;;20.78;56.62;101047.09;4994995;28;20251;-60
2023/07/21 03:19:19;;;;;;;5.23;3.97;;;18.00;84.90;;;20.75;56.13;101042.25;4993737;28;20208;-61
2023/07/21 03:21:46;;;;;;;5.27;4.73;;;18.00;85.00;;;20.78;56.43;101039.09;4995172;28;20198;-62
2023/07/21 03:24:14;;;;;;;5.63;5.13;;;18.10;85.50;;;20.83;57.17;101041.88;4994961;28;20615;-61
2023/07/21 03:26:41;;;;;;;5.90;4.33;;;18.10;86.20;;;20.88;56.47;101033.97;4994819;28;20200;-58
2023/07/21 03:29:08;;;;;;;5.73;5.03;;;18.20;85.40;;;20.81;55.81;101036.78;4995076;28;20302;-60
2023/07/21 03:31:35;;;;;;;5.30;4.80;;;18.20;84.40;;;20.68;56.22;101036.22;4995079;28;20266;-61
2023/07/21 03:34:02;;;;;;;4.93;4.40;;;18.10;84.00;;;20.55;56.54;101031.06;4995076;28;20196;-61
2023/07/21 03:36:31;;;;;;;5.00;4.50;;;18.00;84.00;;;20.46;56.68;101037.81;4994847;28;20651;-62
2023/07/21 03:38:58;;;;;;;6.60;4.40;;;17.90;84.10;;;20.39;56.65;101032.59;4994478;28;20223;-61
2023/07/21 03:41:25;;;;;;;5.17;4.17;;;17.80;84.20;;;20.37;56.27;101039.22;4994525;28;20363;-61
2023/07/21 03:43:52;;;;;;;4.20;3.90;;;17.80;84.40;;;20.37;56.45;101036.53;4994343;28;20252;-60
2023/07/21 03:46:19;;;;;;;3.93;3.40;;;17.70;84.70;;;20.35;56.50;101025.25;4994293;28;20274;-61
2023/07/21 03:48:47;;;;;;;4.17;3.73;;;17.70;84.60;;;20.34;56.86;101034.31;4993875;28;20192;-60
2023/07/21 03:51:14;;;;;;;5.93;3.70;;;17.60;84.70;;;20.37;56.91;101028.50;4993991;28;20278;-61
2023/07/21 03:53:43;;;;;;;3.87;3.57;;;17.60;85.00;;;20.43;56.35;101030.25;5009347;28;20200;-61
2023/07/21 03:56:10;;;;;;;5.33;4.03;;;17.60;85.20;;;20.42;56.18;101031.31;5013961;28;20226;-61
2023/07/21 03:58:37;;;;;;;6.27;3.73;;;17.70;84.80;;;20.41;56.53;101035.03;4999778;28;20684;-60
2023/07/21 04:01:04;;;;;;;4.37;3.40;;;17.70;84.80;;;20.42;56.64;101036.66;4994196;28;20219;-62
2023/07/21 04:03:32;;;;;;;6.90;3.93;;;17.70;84.80;;;20.43;56.55;101033.75;4989380;28;20211;-59
2023/07/21 04:06:07;;;;;;;4.53;3.30;;;17.70;84.80;;;20.41;56.61;101029.69;4975293;28;20208;-61
2023/07/21 04:08:34;;;;;;;4.73;3.23;;;17.70;85.00;;;20.47;56.65;101024.19;4973481;28;20235;-60
2023/07/21 04:11:03;;;;;;;4.00;3.17;;;17.70;85.20;;;20.55;56.48;101020.38;4974975;28;20632;-61
2023/07/21 04:13:30;;;;;;;4.30;3.20;;;17.80;85.10;;;20.57;55.53;101018.28;4975141;28;20201;-61
2023/07/21 04:15:57;;;;;;;4.77;3.90;;;17.80;84.40;;;20.52;55.26;101015.47;4974760;28;20270;-60
2023/07/21 04:18:25;;;;;;;3.97;3.57;;;17.80;83.80;;;20.47;55.62;101018.03;4974613;28;20219;-61
2023/07/21 04:20:52;;;;;;;4.17;3.73;;;17.80;83.80;;;20.39;55.55;101021.91;4975211;28;20215;-60
2023/07/21 04:23:19;;;;;;;6.00;3.67;;;17.70;83.60;;;20.36;55.49;101021.53;4975006;28;20196;-62
2023/07/21 04:25:49;;;;;;;5.80;3.90;;;17.70;83.70;;;20.34;55.62;101016.41;4975459;28;20212;-61
2023/07/21 04:28:17;;;;;;;4.03;3.30;;;17.60;83.80;;;20.34;55.93;101015.59;4975076;28;20199;-60
2023/07/21 04:30:44;;;;;;;3.67;3.37;;;17.60;84.00;;;20.36;56.01;101021.53;4974590;28;20238;-59
2023/07/21 04:33:11;;;;;;;5.07;3.67;;;17.60;84.10;;;20.36;55.91;101024.19;4974907;28;20236;-63
2023/07/21 04:35:45;;;;;;;3.80;3.33;;;17.60;84.10;;;20.35;56.12;101025.25;4974705;28;20677;-60
2023/07/21 04:38:12;;;;;;;5.63;3.77;;;17.60;84.10;;;20.40;55.72;101017.34;4974765;28;20196;-60
2023/07/21 04:40:41;;;;;;;5.03;4.50;;;17.60;84.40;;;20.42;56.19;101020.63;4989026;28;20762;-62
2023/07/21 04:43:08;;;;;;;5.73;3.83;;;17.60;84.40;;;20.41;56.03;101019.78;4974366;28;20199;-59
2023/07/21 04:45:40;;;;;;;6.40;3.70;;;17.70;84.30;;;20.39;56.04;101021.06;4974361;28;20189;-61
2023/07/21 04:48:08;;;;;;;5.17;3.53;;;17.60;84.30;;;20.42;55.74;101020.63;4974705;28;20264;-61
2023/07/21 04:50:35;;;;;;;5.83;4.33;;;17.70;84.60;;;20.46;56.16;101017.25;4973818;28;20308;-61
2023/07/21 04:53:02;;;;;;;3.73;3.43;;;17.70;84.80;;;20.50;55.71;101020.25;4993500;28;20670;-61
2023/07/21 04:55:29;;;;;;;3.83;3.53;;;17.70;84.70;;;20.52;56.25;101023.50;5013962;28;20281;-61
2023/07/21 04:57:56;;;;;;;4.33;3.27;;;17.70;84.70;;;20.56;56.26;101009.44;5004839;28;20199;-60
2023/07/21 05:00:23;;;;;;;5.13;4.13;;;17.80;85.60;;;20.58;56.16;101017.25;4993754;28;20307;-60
2023/07/21 05:02:52;;;;;;;3.67;3.13;;;17.80;84.60;;;20.58;56.16;101014.56;4993919;28;20254;-58
2023/07/21 05:05:19;;;;;;;4.37;3.57;;;17.80;84.40;;;20.59;56.05;101016.19;4974382;28;20239;-61
2023/07/21 05:07:46;;;;;;;3.40;3.10;;;17.80;84.50;;;20.61;55.53;101019.47;4974123;28;20211;-62
2023/07/21 05:10:13;;;;;;;3.50;2.67;;;17.80;84.40;;;20.66;55.64;101022.22;4974024;28;20304;-63
2023/07/21 05:12:40;;;;;;;3.77;3.43;;;17.80;84.30;;;20.68;55.92;101025.50;4973964;28;20224;-61
2023/07/21 05:15:08;;;;;;;3.43;3.13;;;17.90;84.20;;;20.69;55.36;101021.75;4973929;28;20351;-60
2023/07/21 05:17:35;;;;;;;4.70;3.40;;;17.90;84.30;;;20.72;55.22;101018.63;4974109;28;20192;-59
2023/07/21 05:20:07;;;;;;;3.80;3.50;;;17.90;84.10;;;20.76;55.81;101022.44;4972574;28;20268;-61
2023/07/21 05:22:34;;;;;;;3.70;3.40;;;17.90;84.30;;;20.79;55.30;101025.50;4976872;28;20551;-64
2023/07/21 05:25:07;;;;;;;4.50;3.43;;;18.00;84.20;;;20.83;55.53;101023.16;4980709;28;20242;-61
2023/07/21 05:27:35;;;;;;;4.10;3.70;;;18.00;84.10;;;20.83;55.74;101031.16;4996286;28;20196;-60
2023/07/21 05:30:02;;;;;;;3.93;3.50;;;18.00;84.10;;;20.83;55.77;101028.50;4996224;28;20611;-58
2023/07/21 05:32:29;;;;;;;4.93;3.43;;;18.00;84.10;;;20.84;55.41;101030.13;5011397;28;20713;-59
2023/07/21 05:34:57;;;;;;;4.47;3.83;;;18.00;84.30;;;20.91;55.84;101028.16;4996970;28;20219;-61
2023/07/21 05:37:25;;;;;;;5.03;4.63;;;18.10;84.40;;;20.94;55.36;101033.03;4996436;28;20203;-60
2023/07/21 05:39:52;;;;;;;5.17;3.43;;;18.10;84.00;;;20.96;54.88;101033.63;4996009;28;20307;-61
2023/07/21 05:42:19;;;;;;;3.33;2.90;;;18.20;83.90;;;21.00;55.44;101029.41;5011288;28;20192;-64
2023/07/21 05:44:47;;;;;;;4.47;3.30;;;18.20;83.70;;;21.07;55.15;101022.09;4996416;28;20188;-62
2023/07/21 05:47:14;;;;;;;3.80;3.50;;;18.30;83.70;;;21.09;54.41;101022.66;4996959;28;20270;-61
2023/07/21 05:49:41;;;;;;;3.13;2.73;;;18.30;82.90;;;21.03;54.56;101023.59;4994488;28;20688;-62
2023/07/21 05:52:08;;;;;;;4.37;3.20;;;18.30;82.30;;;21.02;54.20;101024.63;4998287;28;20543;-61
2023/07/21 05:54:37;;;;;;;4.40;3.30;;;18.30;82.20;;;21.01;54.42;101020.34;5015737;28;20668;-62
2023/07/21 05:57:06;;;;;;;4.70;3.30;;;18.30;81.90;;;21.02;54.16;101021.13;5014099;28;20192;-62
2023/07/21 05:59:33;;;;;;;3.70;2.47;;;18.30;81.80;;;21.15;54.52;101018.25;4995612;28;20306;-61
2023/07/21 06:02:00;;;;;;;3.33;3.03;;;18.40;82.40;;;21.26;53.53;101023.56;4995952;28;20282;-59
2023/07/21 06:04:27;;;;;;;2.80;2.47;;;18.50;82.00;;;21.35;53.80;101023.97;4983493;28;20232;-60
2023/07/21 06:06:56;;;;;;;2.70;2.50;;;18.50;81.60;;;21.43;53.71;101013.72;4976502;28;20196;-61
2023/07/21 06:09:23;;;;;;;3.23;2.53;;;18.60;81.60;;;21.55;52.96;101011.81;4974822;28;20228;-60
2023/07/21 06:11:52;;;;;;;2.77;2.57;;;18.70;81.40;;;21.67;52.64;101018.97;4976468;28;20197;-60
2023/07/21 06:14:19;;;;;;;3.63;2.87;;;18.80;81.30;;;21.81;52.45;101021.13;4976180;28;20197;-61
2023/07/21 06:16:46;;;;;;;2.27;2.07;;;18.80;80.80;;;21.91;52.08;101007.94;4976507;28;20565;-61
2023/07/21 06:19:13;;;;;;;2.27;2.10;;;18.90;80.50;;;22.03;52.02;101013.22;4974711;28;20264;-61
2023/07/21 06:21:40;;;;;;;2.20;2.00;;;19.00;80.10;;;22.14;51.61;101015.00;4976175;28;20193;-61
2023/07/21 06:24:07;;;;;;;2.17;2.00;;;19.10;79.80;;;22.22;51.22;101011.91;4982940;28;20196;-62
2023/07/21 06:26:34;;;;;;;3.23;2.93;;;19.20;79.40;;;22.30;51.04;101014.19;4995139;28;20187;-60
2023/07/21 06:29:03;;;;;;;4.90;1.97;;;19.20;79.00;;;22.36;50.72;101015.91;4994964;28;20219;-59
2023/07/21 06:31:30;;;;;;;2.33;2.07;;;19.30;78.80;;;22.41;50.56;101015.16;4994048;28;20196;-61
2023/07/21 06:33:57;;;;;;;3.83;2.53;;;19.30;78.60;;;22.50;50.51;101016.38;4995404;28;20227;-60
2023/07/21 06:36:25;;;;;;;2.53;2.33;;;19.40;78.50;;;22.56;50.10;101013.50;4995458;28;20216;-61
2023/07/21 06:38:52;;;;;;;4.70;3.10;;;19.40;78.40;;;22.65;50.30;101022.00;4995821;28;20223;-62
2023/07/21 06:41:19;;;;;;;3.97;2.70;;;19.50;78.30;;;22.75;50.28;101016.75;4995526;28;20192;-61
2023/07/21 06:43:46;;;;;;;3.23;2.93;;;19.60;78.30;;;22.84;49.83;101020.66;4994924;28;20239;-62
2023/07/21 06:46:15;;;;;;;3.60;2.43;;;19.60;78.10;;;22.90;49.68;101020.47;4994693;28;20196;-62
2023/07/21 06:48:42;;;;;;;3.23;2.33;;;19.70;78.00;;;23.01;49.58;101020.59;4994292;28;20223;-61
2023/07/21 06:51:09;;;;;;;2.73;2.23;;;19.80;78.00;;;23.10;49.50;101019.09;4994120;28;20254;-62
2023/07/21 06:53:36;;;;;;;2.60;2.40;;;19.80;77.70;;;23.14;49.39;101014.84;5009007;28;20229;-61
2023/07/21 06:56:04;;;;;;;4.90;3.00;;;19.90;77.40;;;23.21;49.33;101020.84;5014581;28;20218;-60
2023/07/21 06:58:31;;;;;;;3.00;2.77;;;20.00;77.60;;;23.31;49.18;101024.47;5012669;28;20283;-62
2023/07/21 07:01:00;;;;;;;3.20;2.60;;;20.10;77.60;;;23.47;48.82;101020.09;4976448;28;20615;-62
2023/07/21 07:03:29;;;;;;;2.73;2.33;;;20.20;77.60;;;23.63;48.97;101019.19;4990248;28;20200;-60
2023/07/21 07:05:57;;;;;;;3.87;2.57;;;20.30;77.10;;;23.74;48.53;101018.25;4975127;28;20216;-63
2023/07/21 07:08:24;;;;;;;3.00;2.50;;;20.40;76.80;;;23.86;48.37;101020.75;4974805;28;20721;-61
2023/07/21 07:10:51;;;;;;;2.50;2.30;;;20.50;76.60;;;23.98;47.83;101013.34;4975074;28;20220;-62
2023/07/21 07:13:18;;;;;;;2.67;2.43;;;20.70;76.10;;;24.07;48.06;101015.34;4975300;28;20189;-60
2023/07/21 07:15:49;;;;;;;3.33;3.00;;;20.70;75.50;;;24.11;47.39;101016.44;4974903;28;20596;-60
2023/07/21 07:18:16;;;;;;;3.07;2.67;;;20.80;74.90;;;24.18;47.20;101016.22;4975270;28;20601;-61
2023/07/21 07:20:50;;;;;;;3.40;3.03;;;20.90;74.50;;;24.24;46.99;101015.19;4984181;28;20314;-62
2023/07/21 07:23:18;;;;;;;3.10;2.70;;;21.00;74.10;;;24.28;46.56;101010.91;4994586;28;20592;-61
2023/07/21 07:25:47;;;;;;;3.23;2.90;;;21.00;73.90;;;24.28;46.30;101007.41;4994104;28;20192;-60
2023/07/21 07:28:15;;;;;;;2.97;2.77;;;21.00;73.60;;;24.29;46.86;101009.03;4993464;28;20660;-59
2023/07/21 07:30:43;;;;;;;2.43;2.23;;;21.10;73.70;;;24.33;46.90;101015.53;4993196;28;20220;-62
2023/07/21 07:33:10;;;;;;;3.03;2.57;;;21.10;73.80;;;24.41;46.34;101006.97;4994455;28;20196;-61
2023/07/21 07:35:47;;;;;;;2.73;2.40;;;21.20;73.30;;;24.41;46.33;101006.97;4993839;28;20220;-61
2023/07/21 07:38:29;;;;;;;3.13;2.77;;;21.20;72.90;;;24.41;45.82;101001.59;4994171;28;20279;-60
2023/07/21 07:41:02;;;;;;;2.60;2.23;;;21.20;72.20;;;24.40;45.33;100997.28;4993956;28;20214;-57
2023/07/21 07:43:31;;;;;;;2.90;2.57;;;21.20;72.00;;;24.47;45.96;100997.84;4993493;28;20617;-61
2023/07/21 07:45:59;;;;;;;3.70;2.97;;;21.30;72.50;;;24.55;45.77;100997.38;4979700;28;20189;-61
2023/07/21 07:48:26;;;;;;;2.80;2.60;;;21.30;71.80;;;24.57;45.18;100990.66;5009005;28;20270;-61
2023/07/21 07:50:55;;;;;;;4.57;2.80;;;21.40;71.50;;;24.59;44.97;100990.41;4993069;28;20219;-59
2023/07/21 07:53:22;;;;;;;5.37;3.80;;;21.40;70.80;;;24.58;45.11;100994.97;5006679;28;20279;-59
2023/07/21 07:55:49;;;;;;;2.27;2.07;;;21.50;70.20;;;24.59;45.15;100993.09;5013644;28;20639;-58
2023/07/21 07:58:16;;;;;;;2.33;2.23;;;21.50;70.20;;;24.61;44.78;100993.63;5002115;28;20191;-60
2023/07/21 08:00:44;;;;;;;3.30;2.30;;;21.50;70.10;;;24.60;44.68;100987.47;4993388;28;20335;-59
2023/07/21 08:03:11;;;;;;;2.70;2.50;;;21.60;69.60;;;24.63;44.43;100986.09;4992784;28;20308;-60
2023/07/21 08:05:39;;;;;;;2.47;2.27;;;21.50;68.90;;;24.67;44.46;100992.59;4993574;28;20254;-59
2023/07/21 08:08:09;;;;;;;2.93;2.70;;;21.60;69.40;;;24.68;43.98;100988.81;4993532;28;20223;-60
2023/07/21 08:10:41;;;;;;;3.90;2.97;;;21.60;69.30;;;24.85;44.27;100982.22;4993449;28;20353;-57
2023/07/21 08:13:09;;;;;;;3.00;2.60;;;21.70;69.90;;;25.46;43.86;100985.94;4993699;28;20188;-61
2023/07/21 08:15:38;;;;;;;4.30;4.00;;;21.80;70.70;;;26.51;42.47;100980.81;4992355;28;20259;-58
2023/07/21 08:18:05;;;;;;;3.97;3.60;;;22.10;71.10;;;27.78;40.62;100969.16;4993422;28;20276;-61
2023/07/21 08:20:35;;;;;;;4.07;2.87;;;22.50;70.80;;;29.00;38.66;100964.16;4992675;28;20212;-61
2023/07/21 08:23:02;;;;;;;3.00;2.80;;;23.20;69.80;;;30.03;36.50;100965.88;4993463;28;20196;-61
2023/07/21 08:25:46;;;;;;;9.87;9.00;;;23.90;66.90;;;30.14;35.86;100964.59;4993748;28;20184;-61
2023/07/21 08:28:13;;;;;;;3.70;2.73;;;24.50;64.10;;;30.36;34.87;100962.03;4993687;28;20271;-63
2023/07/21 08:30:40;;;;;;;2.57;2.37;;;24.90;61.40;;;30.37;34.61;100966.38;4992543;28;20224;-60
2023/07/21 08:33:24;;;;;;;5.87;2.83;;;25.20;59.70;;;30.09;34.64;100959.25;4993563;28;20180;-62
2023/07/21 08:35:51;;;;;;;3.93;2.27;;;25.40;58.70;;;29.70;35.00;100961.50;4993393;28;20216;-60
2023/07/21 08:38:18;;;;;;;3.30;2.63;;;25.40;58.40;;;29.74;35.23;100957.13;4993322;28;20315;-60
2023/07/21 08:40:54;;;;;;;3.00;2.67;;;25.40;58.90;;;29.71;34.29;100963.13;4992975;28;20220;-62
2023/07/21 08:43:22;;;;;;;8.70;7.30;;;25.40;57.90;;;29.92;34.82;100959.81;4993987;28;20192;-61
2023/07/21 08:45:50;;;;;;;4.57;3.53;;;25.50;57.80;;;30.75;32.94;100966.97;4993523;28;20192;-63
2023/07/21 08:48:18;;;;;;;4.30;2.83;;;25.60;56.90;;;31.77;31.90;100961.72;4992848;28;20232;-59
2023/07/21 08:50:48;;;;;;;3.07;2.70;;;25.90;56.60;;;32.35;31.36;100960.81;4991667;28;20579;-61
2023/07/21 08:53:15;;;;;;;3.00;2.33;;;26.40;56.10;;;32.12;30.60;100959.25;4993745;28;20273;-61
2023/07/21 08:55:42;;;;;;;3.10;2.77;;;26.70;53.60;;;32.00;29.83;100957.06;4994588;28;20282;-60
2023/07/21 08:58:11;;;;;;;3.83;2.70;;;26.90;52.30;;;32.76;29.31;100961.28;4996613;28;20199;-60
2023/07/21 09:00:38;;;;;;;2.87;2.50;;;27.00;51.20;;;33.80;28.32;100949.34;4996109;28;20306;-59
2023/07/21 09:03:05;;;;;;;3.93;3.00;;;27.40;51.50;;;35.01;26.63;100950.47;4996064;28;20192;-61
2023/07/21 09:05:33;;;;;;;3.33;3.03;;;27.90;51.10;;;36.04;25.46;100944.13;4996566;28;20203;-61
2023/07/21 09:08:01;;;;;;;4.73;2.87;;;28.50;49.40;;;36.86;24.20;100945.63;4995732;28;20200;-66
2023/07/21 09:10:33;;;;;;;3.38;2.83;;;29.10;48.30;;;37.58;23.90;100944.66;4994996;28;20243;-61
2023/07/21 09:13:02;;;;;;;3.15;2.60;;;29.80;45.60;;;38.21;22.75;100938.09;4996618;28;20303;-60
2023/07/21 09:15:31;;;;;;;3.85;3.55;;;30.20;44.10;;;38.06;22.24;100944.38;4993267;28;20284;-61
2023/07/21 09:18:01;;;;;;;2.15;1.98;;;30.60;41.50;;;38.02;21.79;100949.00;4985394;28;20595;-61
2023/07/21 09:20:30;;;;;;;2.80;2.60;;;30.80;40.50;;;38.26;21.63;100948.84;5006981;28;20224;-59
2023/07/21 09:22:57;;;;;;;3.78;2.13;;;31.10;39.70;;;38.78;21.25;100951.31;4986454;28;20203;-60
2023/07/21 09:25:24;;;;;;;2.08;1.98;;;31.40;39.70;;;39.10;20.52;100950.06;4994891;28;20282;-60
2023/07/21 09:27:54;;;;;;;8.73;7.95;;;31.70;37.90;;;39.09;20.85;100942.94;5012068;28;20280;-61
2023/07/21 09:30:22;;;;;;;3.28;2.70;;;32.00;37.90;;;39.32;20.65;100948.59;5001971;28;20313;-61
2023/07/21 09:32:56;;;;;;;3.92;3.58;;;32.20;37.90;;;39.98;20.57;100944.72;4995098;28;20602;-62
2023/07/21 09:35:23;;;;;;;2.70;2.50;;;32.40;37.00;;;40.50;18.92;100939.34;5010276;28;20195;-61
2023/07/21 09:37:51;;;;;;;2.88;2.33;;;32.60;35.80;;;40.48;18.45;100941.69;4998960;28;20216;-62
2023/07/21 09:40:28;;;;;;;2.50;2.13;;;32.80;33.30;;;40.53;19.19;100949.66;5008406;28;20227;-61
2023/07/21 09:42:56;;;;;;;2.95;2.40;;;33.10;33.50;;;40.48;18.69;100939.72;4997101;28;20262;-61
2023/07/21 09:45:26;;;;;;;2.67;2.22;;;33.20;33.90;;;40.77;18.72;100932.59;4997536;28;20195;-64
2023/07/21 09:47:56;;;;;;;2.40;2.20;;;33.30;33.20;;;41.07;18.30;100924.38;5002812;28;20190;-60
2023/07/21 09:50:23;;;;;;;3.08;2.75;;;33.40;32.80;;;41.46;17.91;100931.16;5000315;28;20614;-61
2023/07/21 09:52:55;;;;;;;2.80;2.00;;;33.60;33.40;;;41.86;17.15;100930.44;4997997;28;20671;-61
2023/07/21 09:55:23;;;;;;;2.22;2.10;;;33.80;31.10;;;42.07;17.24;100921.50;5003055;28;20274;-61
2023/07/21 09:57:50;;;;;;;1.77;1.67;;;34.10;32.10;;;42.24;16.38;100932.75;5001408;28;20212;-61
2023/07/21 10:00:19;;;;;;;3.13;1.90;;;34.20;30.10;;;42.01;16.87;100931.34;5011010;28;20223;-62
2023/07/21 10:02:52;;;;;;;1.73;1.63;;;34.30;29.80;;;41.66;16.83;100921.50;5000119;28;20188;-61
2023/07/21 10:05:21;;;;;;;2.20;1.70;;;34.40;29.70;;;41.78;16.61;100926.00;4994571;28;20551;-60
2023/07/21 10:07:53;;;;;;;1.90;1.80;;;34.40;29.50;;;41.97;16.78;100927.75;5013603;28;20294;-60
2023/07/21 10:10:22;;;;;;;2.00;1.90;;;34.40;29.60;;;41.87;16.83;100918.16;4998311;28;20215;-59
2023/07/21 10:12:52;;;;;;;2.67;2.47;;;34.40;29.60;;;40.96;17.38;100924.22;5012664;28;20234;-57
2023/07/21 10:15:27;;;;;;;2.40;2.00;;;34.20;29.20;;;40.60;17.42;100924.91;5005374;28;20726;-60
2023/07/21 10:17:57;;;;;;;1.58;1.48;;;34.00;29.70;;;40.52;16.87;100925.94;4995254;28;20295;-62